Station: Badgerys Creek  

  Atmospheric Gas Attenuation - ITU Rec 676-11   ----------------- dB/100km -----------------
Date Time Temp RH % AH g/m3 Dew Point Wind Direction Speed kph Gust kph Barometer mB Rainfall Since 9am 24GHz 47GHz 76GHz 122GHz 134GHz 241GHz
08/05 12:30 19.3 38 6.3 4.6 22 44 1017.3 0 14.5 21.2 29.1 75.9 64.9 221.8
08/05 12:20 20.1 38 6.61 5.3 19 22 1017.3 0 15.1 21.4 29.9 78.0 67.8 231.9
08/05 12:10 19.4 39 6.51 5.1 20 24 1017.4 0 14.9 21.4 29.8 77.7 67.2 229.9
08/05 12:00 19.1 39 6.39 4.8 20 32 1017.6 0 14.7 21.4 29.5 76.9 66.1 226.0
08/05 11:50 19.1 39 6.39 4.8 22 26 1017.6 0 14.7 21.4 29.5 76.9 66.1 226.0
08/05 11:40 19.2 39 6.43 5.2 11 17 1017.8 0 14.8 21.4 29.6 77.2 66.5 227.3
08/05 11:30 19 39 6.35 4.7 20 30 1017.9 0 14.6 21.3 29.4 76.7 65.8 224.7
08/05 11:20 18.7 39 6.24 4.4 22 26 1018 0 14.4 21.2 29.1 76.0 64.8 221.2
08/05 11:10 18.3 41 6.41 4.8 20 26 1018.2 0 14.8 21.6 29.9 77.9 67.1 229.1
08/05 11:00 18.3 41 6.41 4.8 28 37 1018.4 0 14.8 21.6 29.9 77.9 67.1 229.2
08/05 10:50 18 42 6.45 4.9 30 35 1018.4 0 14.9 21.7 30.1 78.6 67.8 231.6
08/05 10:40 17.6 42 6.3 4.5 32 35 1018.6 0 14.6 21.6 29.8 77.6 66.4 226.7
08/05 10:30 17.5 42 6.26 4.5 26 35 1018.6 0 14.5 21.6 29.7 77.3 66.0 225.4
08/05 10:20 17.4 43 6.37 4.7 20 30 1018.8 0 14.7 21.8 30.1 78.5 67.4 230.2
08/05 10:10 16.9 45 6.47 4.9 15 19 1018.9 0 14.9 22.0 30.6 79.9 69.0 235.7
08/05 10:00 16.8 46 6.58 5.1 19 26 1018.8 0 15.2 22.2 31.1 81.1 70.4 240.5
08/05 09:50 16.3 46 6.38 4.6 17 22 1018.8 0 14.8 22.0 30.5 79.6 68.4 233.7
08/05 09:40 16.4 46 6.42 4.7 28 32 1018.7 0 14.8 22.1 30.6 79.9 68.8 235.1
08/05 09:30 15.7 47 6.29 4.4 24 32 1018.6 0 14.6 22.0 30.4 79.3 67.9 231.7
08/05 09:20 15.7 47 6.29 4.4 26 33 1018.7 0 14.6 22.0 30.4 79.4 67.9 231.7
08/05 09:10 15.3 48 6.27 4.3 20 26 1018.6 0 14.6 22.1 30.5 79.5 68.0 232.0
08/05 09:00 15.5 50 6.61 5.1 13 20 1018.7 0 15.3 22.6 31.7 82.6 71.9 245.7
08/05 08:50 14.8 50 6.33 4.7 17 19 1018.6 0 14.7 22.3 30.9 80.6 69.1 235.9
08/05 08:40 13.8 54 6.43 4.6 0 0 1018.6 0 15.0 22.7 31.7 82.6 71.2 243.1
08/05 08:30 12.9 56 6.31 4.3 4 7 1018.7 0 14.7 22.8 31.6 82.4 70.6 240.7
08/05 08:20 13.2 53 6.09 3.8 6 7 1018.6 0 14.3 22.4 30.6 79.9 67.6 230.4
08/05 08:10 13 54 6.12 4.1 7 7 1018.5 0 14.3 22.4 30.8 80.4 68.1 232.2
08/05 08:00 12.2 58 6.26 4.2 13 15 1018.3 0 14.7 22.8 31.6 82.5 70.5 240.6
08/05 07:50 11.5 61 6.3 4.4 13 15 1018.2 0 14.8 23.1 32.1 83.7 71.7 244.4
08/05 07:40 10.6 66 6.44 4.5 7 7 1018.4 0 15.1 23.5 33.0 86.1 74.3 253.5
08/05 07:30 9.5 69 6.28 4.1 7 9 1018.3 0 14.8 23.6 32.8 85.6 73.3 249.8
08/05 07:20 8.8 67 5.83 3 4 4 1018.3 0 13.9 23.0 31.3 81.7 68.1 231.7
08/05 07:10 8.5 67 5.72 2.7 6 6 1018.3 0 13.7 22.9 31.0 80.8 67.0 227.6
08/05 07:00 8.4 65 5.52 2.2 7 9 1018.2 0 13.2 22.7 30.3 78.9 64.5 219.0
08/05 06:50 8.4 65 5.52 2.2 6 7 1018.3 0 13.2 22.7 30.3 78.9 64.5 219.0
08/05 06:40 8.3 66 5.57 2.3 6 7 1018.4 0 13.3 22.8 30.5 79.5 65.3 221.5
08/05 06:30 8.1 65 5.41 1.9 7 9 1018.3 0 13.0 22.6 30.0 78.1 63.4 214.9
08/05 06:20 8.4 64 5.43 2 7 7 1018.3 0 13.0 22.5 29.9 78.0 63.4 215.0
08/05 06:10 8 65 5.38 1.8 7 7 1018.3 0 12.9 22.5 29.9 77.9 63.1 213.9
08/05 06:00 8.2 65 5.45 2 7 15 1018.3 0 13.1 22.6 30.1 78.4 63.8 216.4
08/05 05:50 9.2 64 5.72 2.9 13 15 1018.2 0 13.6 22.8 30.7 80.1 66.4 225.6
08/05 05:40 8.8 65 5.66 2.6 11 15 1018.2 0 13.5 22.8 30.7 79.9 66.0 224.1
08/05 05:30 8.2 67 5.61 2.4 6 9 1018.1 0 13.4 22.8 30.7 80.0 65.8 223.5
08/05 05:20 7.5 67 5.37 1.9 6 6 1018.1 0 12.9 22.6 30.0 78.2 63.4 214.7
08/05 05:10 7.4 68 5.41 1.9 4 6 1018.2 0 13.0 22.7 30.2 78.8 64.0 216.8
08/05 05:00 7 67 5.19 1.3 4 6 1018.2 0 12.6 22.5 29.5 76.9 61.5 208.1
08/05 04:50 7.7 66 5.35 1.7 6 6 1018.1 0 12.9 22.6 29.9 77.8 62.9 213.3
08/05 04:40 7.6 66 5.32 1.8 9 9 1018.1 0 12.8 22.5 29.8 77.6 62.6 212.2
08/05 04:30 8.1 64 5.33 1.7 7 11 1018.3 0 12.8 22.4 29.7 77.3 62.4 211.4
08/05 04:20 8.2 62 5.19 1.5 6 6 1018.3 0 12.5 22.2 29.1 75.7 60.6 205.0
08/05 04:10 8.4 62 5.26 1.7 4 4 1018.2 0 12.7 22.3 29.3 76.2 61.3 207.5
08/05 04:00 8.6 63 5.42 2 6 7 1018.1 0 13.0 22.5 29.8 77.7 63.1 214.0
08/05 03:50 8.5 63 5.38 1.8 4 6 1018 0 12.9 22.4 29.7 77.3 62.7 212.5
08/05 03:40 8 65 5.38 1.8 7 9 1018.1 0 12.9 22.5 29.9 77.8 63.1 213.8
08/05 03:30 7.8 66 5.39 1.9 9 11 1018.2 0 13.0 22.6 30.0 78.2 63.4 214.8
08/05 03:20 7.5 65 5.21 1.3 7 7 1018.5 0 12.6 22.4 29.4 76.6 61.4 207.7
08/05 03:10 8.2 62 5.19 1.5 6 7 1018.6 0 12.5 22.2 29.1 75.8 60.6 205.0
08/05 03:00 8.2 63 5.28 1.6 4 7 1018.8 0 12.7 22.4 29.5 76.7 61.7 209.0
08/05 02:50 8.1 63 5.24 1.5 6 7 1018.8 0 12.6 22.3 29.3 76.4 61.3 207.5
08/05 02:40 7.5 62 4.96 0.7 4 6 1018.8 0 12.1 22.0 28.5 74.1 58.2 196.7
08/05 02:30 8.9 60 5.26 1.6 4 7 1018.9 0 12.7 22.2 29.1 75.8 60.9 206.3
08/05 02:20 8.7 59 5.1 1.3 6 6 1019 0 12.3 22.0 28.6 74.4 59.1 199.9
08/05 02:10 8.8 59 5.14 1.2 2 4 1018.9 0 12.4 22.0 28.7 74.7 59.5 201.4
08/05 02:00 9.2 58 5.18 1.4 4 11 1019 0 12.5 22.0 28.7 74.8 59.7 202.1
08/05 01:50 8.5 60 5.12 1.2 6 9 1019.1 0 12.4 22.1 28.8 74.8 59.5 201.3
08/05 01:40 8.9 59 5.17 1.3 13 13 1019.2 0 12.5 22.0 28.8 75.0 59.8 202.5
08/05 01:30 8.5 61 5.21 1.4 15 19 1019.3 0 12.6 22.2 29.1 75.7 60.6 205.3
08/05 01:20 7.9 61 5.01 0.8 13 15 1019.4 0 12.2 22.0 28.6 74.3 58.6 198.0
08/05 01:10 8.3 60 5.06 1 15 19 1019.4 0 12.3 22.0 28.6 74.4 58.9 199.2
08/05 01:00 8.2 59 4.94 0.7 9 17 1019.6 0 12.0 21.9 28.2 73.3 57.5 194.3
08/05 00:50 8 60 4.96 0.7 9 13 1019.6 0 12.0 21.9 28.4 73.7 57.9 195.6
08/05 00:40 7.8 60 4.9 0.5 7 9 1019.7 0 11.9 21.9 28.2 73.3 57.3 193.5
08/05 00:20 7.7 58 4.71 -0.1 9 11 1020 0 11.5 21.7 27.5 71.5 55.0 185.6
08/05 00:10 8.3 55 4.64 -0.2 6 6 1020 0 11.4 21.4 27.1 70.3 53.8 181.2
08/05 00:00 8.8 54 4.7 0 6 7 1020 0 11.5 21.4 27.1 70.4 54.2 182.6
07/05 23:50 8.4 55 4.67 -0.1 4 4 1019.9 0 11.4 21.4 27.2 70.5 54.1 182.2
07/05 23:40 7.9 56 4.6 -0.4 6 7 1019.9 0 11.3 21.4 27.1 70.2 53.6 180.3
07/05 23:30 8.6 54 4.64 -0.2 11 17 1019.8 0 11.3 21.3 27.0 70.0 53.6 180.5
07/05 23:20 9.2 52 4.64 -0.2 13 13 1019.8 0 11.3 21.2 26.8 69.5 53.2 179.1
07/05 23:10 9.7 50 4.61 -0.2 13 17 1019.8 0 11.2 21.0 26.5 68.8 52.5 176.8
07/05 23:00 10 49 4.61 -0.2 22 30 1019.6 0 11.2 21.0 26.4 68.5 52.3 176.1
07/05 22:50 9.9 49 4.58 -0.3 22 28 1019.6 0 11.2 20.9 26.3 68.3 52.0 175.0
07/05 22:40 10.1 49 4.63 -0.2 22 28 1019.5 0 11.3 21.0 26.4 68.6 52.4 176.7
07/05 22:30 10.2 49 4.66 0 22 33 1019.5 0 11.3 21.0 26.5 68.8 52.7 177.7
07/05 22:20 9.8 51 4.73 0.1 17 19 1019.6 0 11.5 21.2 26.9 69.8 53.8 181.6
07/05 22:10 9.6 52 4.76 0.2 15 20 1019.7 0 11.6 21.3 27.1 70.3 54.3 183.3
07/05 22:00 8.8 54 4.7 0 9 17 1020 0 11.5 21.4 27.1 70.4 54.2 182.6
07/05 21:50 8.5 54 4.61 -0.3 13 17 1020.1 0 11.3 21.3 26.9 69.8 53.3 179.5
07/05 21:40 8.7 52 4.5 -0.6 9 11 1020 0 11.0 21.1 26.4 68.6 51.8 174.3
07/05 21:30 9.1 51 4.53 -0.5 9 17 1020 0 11.1 21.1 26.4 68.5 51.9 174.7
07/05 21:20 9.3 50 4.49 -0.6 9 11 1019.9 0 11.0 21.0 26.2 68.0 51.3 172.6
07/05 21:10 9.2 50 4.47 -0.7 11 15 1019.9 0 11.0 20.9 26.2 67.9 51.1 172.0
07/05 21:00 10.4 47 4.53 -0.4 17 24 1019.8 0 11.1 20.8 26.0 67.4 51.1 171.9
07/05 20:50 10.7 46 4.52 -0.5 22 26 1019.7 0 11.0 20.7 25.9 67.1 50.8 170.9
07/05 20:40 10.4 47 4.53 -0.5 17 20 1019.6 0 11.1 20.8 26.0 67.4 51.1 171.9
07/05 20:30 10.3 46 4.41 -0.8 20 33 1019.6 0 10.8 20.6 25.6 66.3 49.7 167.1
07/05 20:20 10.9 45 4.48 -0.6 26 30 1019.5 0 10.9 20.6 25.6 66.5 50.2 168.8
07/05 20:10 10.4 46 4.43 -0.7 20 30 1019.3 0 10.8 20.6 25.6 66.4 49.9 167.7
07/05 20:00 11 44 4.41 -0.8 30 39 1019 0 10.8 20.4 25.4 65.7 49.3 165.6
07/05 19:50 10.9 44 4.38 -0.9 26 30 1018.9 0 10.7 20.4 25.3 65.5 49.0 164.6

Last Refresh: 08-May-2026 12:08:16

Bureau of Meteorology